PWSweather.com
Personal Weather Stations
Station Observations
STPETERS
BroadstairsGB

BroadstairsGB

Lat: 51.37, Lon: 1.423

Elevation: 141

Station Type: WH1081

Latest ConditionsUpdated 1:15:01 PM GMT Sunday, Apr 20, 2014
Currently Today's Max Today's Min Today's Average
Temperature 54.5°F12.5°C 55.2°F12.9°C 50.7°F10.4°C 52.6°F11.4°C
Dew Point 54.2°F12.3°C 54.2°F12.3°C 50.5°F10.3°C 52.0°F11.1°C
Winds 6.2 mph ENE10.0 kmh ENE 14.1 mph NE22.7 kmh NE - 9.1 mph 14.6 kmh
Wind Gusts 9.8 mph15.8 kmh 19.0 mph30.6 kmh - -
Humidity 99% 99% 91% 98%
Pressure 29.57 in1001.4 mb 29.81 in1009.5 mb 29.57 in1001.4 mb -
Precipitation - 0.02 in0.5 mm - -
Hour Temp Dew Point Humidity Winds Wind Gusts Pressure Precip Precip Rate Daily Precip Total
01:15 PM 54.5°F12.5°C 54.2°F12.3°C 99% 6.2 mph ENE10.0 kmh ENE 9.8 mph15.8 kmh 29.57 in1001.4 mb 0.00 in0.0 mm 0.00 in/hr0.0 mm/hr 0.02 in0.5 mm
01:00 PM 53.6°F12.0°C 53.3°F11.8°C 99% 6.7 mph NE10.8 kmh NE 9.8 mph15.8 kmh 29.57 in1001.4 mb 0.00 in0.0 mm 0.00 in/hr0.0 mm/hr 0.02 in0.5 mm
12:45 PM 52.9°F11.6°C 52.6°F11.4°C 99% 5.7 mph ENE9.2 kmh ENE 10.7 mph17.2 kmh 29.58 in1001.7 mb 0.01 in0.3 mm 0.00 in/hr0.0 mm/hr 0.02 in0.5 mm
12:30 PM 53.1°F11.7°C 52.8°F11.6°C 99% 6.3 mph NE10.1 kmh NE 8.3 mph13.4 kmh 29.58 in1001.7 mb 0.01 in0.3 mm 0.00 in/hr0.0 mm/hr 0.02 in0.5 mm
12:15 PM 53.4°F11.9°C 53.2°F11.8°C 99% 5.0 mph ENE8.0 kmh ENE 6.9 mph11.1 kmh 29.59 in1002.0 mb 0.01 in0.3 mm 0.00 in/hr0.0 mm/hr 0.02 in0.5 mm
12:00 PM 53.2°F11.8°C 53.0°F11.7°C 99% 6.2 mph NE10.0 kmh NE 8.3 mph13.4 kmh 29.59 in1002.0 mb 0.01 in0.3 mm 0.01 in/hr0.3 mm/hr 0.02 in0.5 mm
11:45 AM 53.1°F11.7°C 52.8°F11.6°C 99% 6.0 mph NE9.7 kmh NE 9.2 mph14.8 kmh 29.59 in1002.0 mb 0.00 in0.0 mm 0.00 in/hr0.0 mm/hr 0.01 in0.3 mm
11:30 AM 53.1°F11.7°C 52.8°F11.6°C 99% 7.7 mph NE12.4 kmh NE 13.0 mph20.9 kmh 29.60 in1002.4 mb 0.00 in0.0 mm 0.00 in/hr0.0 mm/hr 0.01 in0.3 mm
11:15 AM 53.2°F11.8°C 53.0°F11.7°C 99% 9.1 mph NE14.6 kmh NE 12.1 mph19.5 kmh 29.59 in1002.0 mb 0.00 in0.0 mm 0.00 in/hr0.0 mm/hr 0.01 in0.3 mm
11:00 AM 53.6°F12.0°C 53.3°F11.8°C 99% 8.6 mph NE13.8 kmh NE 11.4 mph18.3 kmh 29.61 in1002.7 mb 0.01 in0.3 mm 0.00 in/hr0.0 mm/hr 0.01 in0.3 mm
10:45 AM 54.1°F12.3°C 53.6°F12.0°C 98% 8.4 mph NE13.5 kmh NE 11.4 mph18.3 kmh 29.61 in1002.7 mb 0.01 in0.3 mm 0.00 in/hr0.0 mm/hr 0.01 in0.3 mm
10:30 AM 54.0°F12.2°C 53.4°F11.9°C 98% 7.9 mph ENE12.7 kmh ENE 11.4 mph18.3 kmh 29.61 in1002.7 mb 0.01 in0.3 mm 0.00 in/hr0.0 mm/hr 0.01 in0.3 mm
10:15 AM 53.6°F12.0°C 53.1°F11.7°C 98% 9.1 mph NE14.6 kmh NE 13.6 mph21.9 kmh 29.62 in1003.0 mb 0.01 in0.3 mm 0.04 in/hr1.0 mm/hr 0.01 in0.3 mm
10:00 AM 53.8°F12.1°C 53.0°F11.7°C 97% 9.3 mph E15.0 kmh E 13.0 mph20.9 kmh 29.62 in1003.0 mb 0.00 in0.0 mm 0.00 in/hr0.0 mm/hr 0.00 in0.0 mm
09:45 AM 53.8°F12.1°C 53.0°F11.7°C 97% 10.1 mph NE16.3 kmh NE 17.4 mph28.0 kmh 29.62 in1003.0 mb 0.00 in0.0 mm 0.00 in/hr0.0 mm/hr 0.00 in0.0 mm
09:30 AM 54.1°F12.3°C 53.0°F11.7°C 96% 8.6 mph E13.8 kmh E 11.4 mph18.3 kmh 29.64 in1003.7 mb 0.00 in0.0 mm 0.00 in/hr0.0 mm/hr 0.00 in0.0 mm
09:15 AM 53.8°F12.1°C 51.8°F11.0°C 93% 9.2 mph E14.8 kmh E 14.5 mph23.3 kmh 29.64 in1003.7 mb 0.00 in0.0 mm 0.00 in/hr0.0 mm/hr 0.00 in0.0 mm
09:00 AM 54.1°F12.3°C 51.9°F11.1°C 92% 9.1 mph E14.6 kmh E 16.8 mph27.0 kmh 29.64 in1003.7 mb 0.00 in0.0 mm 0.00 in/hr0.0 mm/hr 0.00 in0.0 mm
08:45 AM 54.7°F12.6°C 52.1°F11.2°C 91% 10.2 mph E16.4 kmh E 15.2 mph24.5 kmh 29.64 in1003.7 mb 0.00 in0.0 mm 0.00 in/hr0.0 mm/hr 0.00 in0.0 mm
08:30 AM 55.0°F12.8°C 52.5°F11.4°C 91% 9.8 mph ENE15.8 kmh ENE 14.5 mph23.3 kmh 29.64 in1003.7 mb 0.00 in0.0 mm 0.00 in/hr0.0 mm/hr 0.00 in0.0 mm
08:15 AM 55.2°F12.9°C 53.2°F11.8°C 93% 8.4 mph E13.5 kmh E 12.1 mph19.5 kmh 29.65 in1004.1 mb 0.00 in0.0 mm 0.00 in/hr0.0 mm/hr 0.00 in0.0 mm
08:00 AM 54.7°F12.6°C 52.7°F11.5°C 93% 7.6 mph ENE12.2 kmh ENE 13.0 mph20.9 kmh 29.64 in1003.7 mb 0.00 in0.0 mm 0.00 in/hr0.0 mm/hr 0.00 in0.0 mm
07:45 AM 54.5°F12.5°C 53.1°F11.7°C 95% 7.8 mph E12.6 kmh E 11.4 mph18.3 kmh 29.64 in1003.7 mb 0.00 in0.0 mm 0.00 in/hr0.0 mm/hr 0.00 in0.0 mm
07:30 AM 54.0°F12.2°C 52.9°F11.6°C 96% 7.4 mph NE11.9 kmh NE 10.7 mph17.2 kmh 29.65 in1004.1 mb 0.00 in0.0 mm 0.00 in/hr0.0 mm/hr 0.00 in0.0 mm
07:15 AM 53.8°F12.1°C 53.0°F11.7°C 97% 8.6 mph ENE13.8 kmh ENE 12.1 mph19.5 kmh 29.66 in1004.4 mb 0.00 in0.0 mm 0.00 in/hr0.0 mm/hr 0.00 in0.0 mm
07:00 AM 53.2°F11.8°C 52.7°F11.5°C 98% 6.0 mph NE9.7 kmh NE 8.3 mph13.4 kmh 29.66 in1004.4 mb 0.00 in0.0 mm 0.00 in/hr0.0 mm/hr 0.00 in0.0 mm
06:45 AM 53.1°F11.7°C 52.8°F11.6°C 99% 8.5 mph NE13.7 kmh NE 12.1 mph19.5 kmh 29.66 in1004.4 mb 0.00 in0.0 mm 0.00 in/hr0.0 mm/hr 0.00 in0.0 mm
06:30 AM 52.7°F11.5°C 52.4°F11.3°C 99% 8.7 mph NNE14.0 kmh NNE 11.4 mph18.3 kmh 29.67 in1004.7 mb 0.00 in0.0 mm 0.00 in/hr0.0 mm/hr 0.00 in0.0 mm
06:15 AM 52.3°F11.3°C 52.1°F11.2°C 99% 8.7 mph ENE14.0 kmh ENE 12.1 mph19.5 kmh 29.67 in1004.7 mb 0.00 in0.0 mm 0.00 in/hr0.0 mm/hr 0.00 in0.0 mm
06:00 AM 52.2°F11.2°C 51.9°F11.1°C 99% 9.1 mph NE14.6 kmh NE 12.1 mph19.5 kmh 29.67 in1004.7 mb 0.00 in0.0 mm 0.00 in/hr0.0 mm/hr 0.00 in0.0 mm
05:45 AM 51.8°F11.0°C 51.5°F10.8°C 99% 6.8 mph NE10.9 kmh NE 9.8 mph15.8 kmh 29.67 in1004.7 mb 0.00 in0.0 mm 0.00 in/hr0.0 mm/hr 0.00 in0.0 mm
05:30 AM 51.4°F10.8°C 51.2°F10.7°C 99% 8.9 mph NE14.3 kmh NE 11.4 mph18.3 kmh 29.68 in1005.1 mb 0.00 in0.0 mm 0.00 in/hr0.0 mm/hr 0.00 in0.0 mm
05:15 AM 51.6°F10.9°C 51.4°F10.8°C 99% 8.1 mph NNE13.0 kmh NNE 12.1 mph19.5 kmh 29.68 in1005.1 mb 0.00 in0.0 mm 0.00 in/hr0.0 mm/hr 0.00 in0.0 mm
05:00 AM 51.4°F10.8°C 51.2°F10.7°C 99% 8.7 mph NE14.0 kmh NE 12.1 mph19.5 kmh 29.69 in1005.4 mb 0.00 in0.0 mm 0.00 in/hr0.0 mm/hr 0.00 in0.0 mm
04:45 AM 51.4°F10.8°C 51.2°F10.7°C 99% 8.0 mph ENE12.9 kmh ENE 9.8 mph15.8 kmh 29.70 in1005.8 mb 0.00 in0.0 mm 0.00 in/hr0.0 mm/hr 0.00 in0.0 mm
04:30 AM 51.3°F10.7°C 51.0°F10.6°C 99% 8.3 mph NNE13.4 kmh NNE 13.6 mph21.9 kmh 29.70 in1005.8 mb 0.00 in0.0 mm 0.00 in/hr0.0 mm/hr 0.00 in0.0 mm
04:15 AM 51.3°F10.7°C 51.0°F10.6°C 99% 9.5 mph NNE15.3 kmh NNE 11.4 mph18.3 kmh 29.70 in1005.8 mb 0.00 in0.0 mm 0.00 in/hr0.0 mm/hr 0.00 in0.0 mm
04:00 AM 51.3°F10.7°C 51.0°F10.6°C 99% 8.8 mph NE14.2 kmh NE 12.1 mph19.5 kmh 29.70 in1005.8 mb 0.00 in0.0 mm 0.00 in/hr0.0 mm/hr 0.00 in0.0 mm
03:45 AM 51.1°F10.6°C 50.8°F10.4°C 99% 11.5 mph NNE18.5 kmh NNE 16.8 mph27.0 kmh 29.71 in1006.1 mb 0.00 in0.0 mm 0.00 in/hr0.0 mm/hr 0.00 in0.0 mm
03:30 AM 51.1°F10.6°C 50.8°F10.4°C 99% 11.2 mph NE18.0 kmh NE 14.5 mph23.3 kmh 29.72 in1006.4 mb 0.00 in0.0 mm 0.00 in/hr0.0 mm/hr 0.00 in0.0 mm
03:15 AM 51.1°F10.6°C 50.8°F10.4°C 99% 10.7 mph NE17.2 kmh NE 13.6 mph21.9 kmh 29.73 in1006.8 mb 0.00 in0.0 mm 0.00 in/hr0.0 mm/hr 0.00 in0.0 mm
03:00 AM 51.1°F10.6°C 50.8°F10.4°C 99% 9.2 mph NE14.8 kmh NE 11.4 mph18.3 kmh 29.73 in1006.8 mb 0.00 in0.0 mm 0.00 in/hr0.0 mm/hr 0.00 in0.0 mm
02:45 AM 50.9°F10.5°C 50.6°F10.3°C 99% 12.1 mph NE19.5 kmh NE 15.2 mph24.5 kmh 29.73 in1006.8 mb 0.00 in0.0 mm 0.00 in/hr0.0 mm/hr 0.00 in0.0 mm
02:30 AM 50.9°F10.5°C 50.6°F10.3°C 99% 11.2 mph NNE18.0 kmh NNE 14.5 mph23.3 kmh 29.74 in1007.1 mb 0.00 in0.0 mm 0.00 in/hr0.0 mm/hr 0.00 in0.0 mm
02:15 AM 50.7°F10.4°C 50.5°F10.3°C 99% 12.0 mph NE19.3 kmh NE 15.2 mph24.5 kmh 29.75 in1007.5 mb 0.00 in0.0 mm 0.00 in/hr0.0 mm/hr 0.00 in0.0 mm
02:00 AM 50.9°F10.5°C 50.6°F10.3°C 99% 14.1 mph NE22.7 kmh NE 19.0 mph30.6 kmh 29.76 in1007.8 mb 0.00 in0.0 mm 0.00 in/hr0.0 mm/hr 0.00 in0.0 mm
01:45 AM 50.9°F10.5°C 50.6°F10.3°C 99% 13.8 mph NE22.2 kmh NE 16.8 mph27.0 kmh 29.76 in1007.8 mb 0.00 in0.0 mm 0.00 in/hr0.0 mm/hr 0.00 in0.0 mm
01:30 AM 51.1°F10.6°C 50.8°F10.4°C 99% 11.2 mph NNE18.0 kmh NNE 13.6 mph21.9 kmh 29.77 in1008.1 mb 0.00 in0.0 mm 0.00 in/hr0.0 mm/hr 0.00 in0.0 mm
01:15 AM 51.3°F10.7°C 51.0°F10.6°C 99% 10.8 mph NNE17.4 kmh NNE 13.6 mph21.9 kmh 29.78 in1008.5 mb 0.00 in0.0 mm 0.00 in/hr0.0 mm/hr 0.00 in0.0 mm
01:00 AM 51.3°F10.7°C 51.0°F10.6°C 99% 10.8 mph N17.4 kmh N 13.6 mph21.9 kmh 29.78 in1008.5 mb 0.00 in0.0 mm 0.00 in/hr0.0 mm/hr 0.00 in0.0 mm
12:45 AM 51.1°F10.6°C 50.8°F10.4°C 99% 11.4 mph NE18.3 kmh NE 14.5 mph23.3 kmh 29.79 in1008.8 mb 0.00 in0.0 mm 0.00 in/hr0.0 mm/hr 0.00 in0.0 mm
12:30 AM 51.1°F10.6°C 50.8°F10.4°C 99% 10.6 mph NE17.1 kmh NE 15.2 mph24.5 kmh 29.80 in1009.1 mb 0.00 in0.0 mm 0.00 in/hr0.0 mm/hr 0.00 in0.0 mm
12:15 AM 51.1°F10.6°C 50.8°F10.4°C 99% 12.7 mph NE20.4 kmh NE 17.4 mph28.0 kmh 29.80 in1009.1 mb 0.00 in0.0 mm 0.00 in/hr0.0 mm/hr 0.00 in0.0 mm
12:00 AM 50.9°F10.5°C 50.6°F10.3°C 99% 13.4 mph NE21.6 kmh NE 16.8 mph27.0 kmh 29.81 in1009.5 mb 0.00 in0.0 mm 0.00 in/hr0.0 mm/hr 0.00 in0.0 mm